createdAt,value
2022-11-25T00:00:24.697Z,2.93
2022-11-25T00:01:24.698Z,2.90
2022-11-25T00:02:24.849Z,2.87
2022-11-25T00:03:24.821Z,2.90
2022-11-25T00:04:24.720Z,2.90
2022-11-25T00:05:24.720Z,2.90
2022-11-25T00:06:24.739Z,2.93
2022-11-25T00:07:24.769Z,2.90
2022-11-25T00:08:24.745Z,2.87
2022-11-25T00:09:24.765Z,2.93
2022-11-25T00:10:24.760Z,2.82
2022-11-25T00:11:24.788Z,2.89
2022-11-25T00:12:24.790Z,2.90
2022-11-25T00:13:24.769Z,2.78
2022-11-25T00:14:24.782Z,2.79
2022-11-25T00:15:24.782Z,2.74
2022-11-25T00:16:24.873Z,2.77
2022-11-25T00:17:24.793Z,2.75
2022-11-25T00:18:24.805Z,2.74
2022-11-25T00:19:24.815Z,2.89
2022-11-25T00:20:24.815Z,2.85
2022-11-25T00:21:24.823Z,2.79
2022-11-25T00:22:24.831Z,2.85
2022-11-25T00:23:27.974Z,2.72
2022-11-25T00:24:24.843Z,2.69
2022-11-25T00:25:24.863Z,2.79
2022-11-25T00:26:24.860Z,2.71
2022-11-25T00:27:24.856Z,2.69
2022-11-25T00:28:24.864Z,2.64
2022-11-25T00:29:24.870Z,2.63
2022-11-25T00:30:24.878Z,2.56
2022-11-25T00:31:24.959Z,2.54
2022-11-25T00:32:24.893Z,2.57
2022-11-25T00:33:24.894Z,2.45
2022-11-25T00:34:24.904Z,2.56
2022-11-25T00:35:24.905Z,2.38
2022-11-25T00:36:24.917Z,2.43
2022-11-25T00:37:24.923Z,2.41
2022-11-25T00:38:24.926Z,2.41
2022-11-25T00:39:24.930Z,2.38
2022-11-25T00:40:24.939Z,2.38
2022-11-25T00:41:24.964Z,2.38
2022-11-25T00:42:24.951Z,2.38
2022-11-25T00:43:24.955Z,2.36
2022-11-25T00:44:24.963Z,2.39
2022-11-25T00:45:25.050Z,2.43
2022-11-25T00:46:24.977Z,2.42
2022-11-25T00:47:24.981Z,2.43
2022-11-25T00:48:24.995Z,2.45
2022-11-25T00:49:24.990Z,2.41
2022-11-25T00:50:25.001Z,2.39
2022-11-25T00:51:25.000Z,2.45
2022-11-25T00:52:25.013Z,2.41
2022-11-25T00:53:25.015Z,2.38
2022-11-25T00:54:25.022Z,2.43
2022-11-25T00:55:25.027Z,2.52
2022-11-25T00:56:25.035Z,2.52
2022-11-25T00:57:25.058Z,2.54
2022-11-25T00:58:25.050Z,2.43
2022-11-25T00:59:25.052Z,2.59
2022-11-25T01:00:25.068Z,2.53
2022-11-25T01:01:25.178Z,2.56
2022-11-25T01:02:25.171Z,2.61
2022-11-25T01:03:25.075Z,2.64
2022-11-25T01:04:25.081Z,2.56
2022-11-25T01:05:25.087Z,2.60
2022-11-25T01:06:25.102Z,2.60
2022-11-25T01:07:25.166Z,2.66
2022-11-25T01:08:25.108Z,2.67
2022-11-25T01:09:25.210Z,2.66
2022-11-25T01:10:25.122Z,2.69
2022-11-25T01:11:25.123Z,2.63
2022-11-25T01:12:25.131Z,2.74
2022-11-25T01:13:25.154Z,2.75
2022-11-25T01:14:25.146Z,2.74
2022-11-25T01:15:25.145Z,2.71
2022-11-25T01:16:25.224Z,2.74
2022-11-25T01:17:25.159Z,2.81
2022-11-25T01:18:25.168Z,2.74
2022-11-25T01:19:25.171Z,2.69
2022-11-25T01:20:25.281Z,2.77
2022-11-25T01:21:25.183Z,2.77
2022-11-25T01:22:25.189Z,2.79
2022-11-25T01:23:25.196Z,2.79
2022-11-25T01:24:25.205Z,2.77
2022-11-25T01:25:25.206Z,2.77
2022-11-25T01:26:25.216Z,2.78
2022-11-25T01:27:25.219Z,2.75
2022-11-25T01:28:25.226Z,2.85
2022-11-25T01:29:25.258Z,2.85
2022-11-25T01:30:25.241Z,2.87
2022-11-25T01:31:25.275Z,2.82
2022-11-25T01:32:25.257Z,2.84
2022-11-25T01:33:25.259Z,2.89
2022-11-25T01:34:25.274Z,3.00
2022-11-25T01:35:25.269Z,3.03
2022-11-25T01:36:25.282Z,3.05
2022-11-25T01:37:25.279Z,3.05
2022-11-25T01:38:25.290Z,3.10
2022-11-25T01:39:31.711Z,3.10
2022-11-25T01:40:25.299Z,3.06
2022-11-25T01:41:25.309Z,3.11
2022-11-25T01:42:25.313Z,3.18
2022-11-25T01:43:25.315Z,3.15
2022-11-25T01:44:25.335Z,3.20
2022-11-25T01:45:28.534Z,3.14
2022-11-25T01:46:25.360Z,3.14
2022-11-25T01:47:25.342Z,3.14
2022-11-25T01:48:25.351Z,3.28
2022-11-25T01:49:25.355Z,3.26
2022-11-25T01:50:25.369Z,3.20
2022-11-25T01:51:25.374Z,3.35
2022-11-25T01:52:25.375Z,3.31
2022-11-25T01:53:25.380Z,3.31
2022-11-25T01:54:25.393Z,3.39
2022-11-25T01:55:25.394Z,3.33
2022-11-25T01:56:25.403Z,3.35
2022-11-25T01:57:25.404Z,3.32
2022-11-25T01:58:25.419Z,3.40
2022-11-25T01:59:25.418Z,3.33
2022-11-25T02:00:25.430Z,3.40
2022-11-25T02:01:25.490Z,3.24
2022-11-25T02:02:25.512Z,3.20
2022-11-25T02:03:25.445Z,3.17
2022-11-25T02:04:25.454Z,3.18
2022-11-25T02:05:28.446Z,3.13
2022-11-25T02:06:25.465Z,3.10
2022-11-25T02:07:25.521Z,3.08
2022-11-25T02:08:25.478Z,3.10
2022-11-25T02:09:25.483Z,3.05
2022-11-25T02:10:25.527Z,3.17
2022-11-25T02:11:25.521Z,3.17
2022-11-25T02:12:25.505Z,3.24
2022-11-25T02:13:25.509Z,3.21
2022-11-25T02:14:25.517Z,3.35
2022-11-25T02:15:25.533Z,3.21
2022-11-25T02:16:25.593Z,3.23
2022-11-25T02:17:25.554Z,3.26
2022-11-25T02:18:25.545Z,3.21
2022-11-25T02:19:25.550Z,3.29
2022-11-25T02:20:25.552Z,3.17
2022-11-25T02:21:25.565Z,3.14
2022-11-25T02:22:25.572Z,3.06
2022-11-25T02:23:25.585Z,3.11
2022-11-25T02:24:25.577Z,3.05
2022-11-25T02:25:25.587Z,3.06
2022-11-25T02:26:25.602Z,3.02
2022-11-25T02:27:25.600Z,3.02
2022-11-25T02:28:25.604Z,3.06
2022-11-25T02:29:25.611Z,3.05
2022-11-25T02:30:25.617Z,3.02
2022-11-25T02:31:25.669Z,3.13
2022-11-25T02:32:25.628Z,3.00
2022-11-25T02:33:25.657Z,3.10
2022-11-25T02:34:25.641Z,3.13
2022-11-25T02:35:25.652Z,3.03
2022-11-25T02:36:25.654Z,3.10
2022-11-25T02:37:25.661Z,3.14
2022-11-25T02:38:25.666Z,3.21
2022-11-25T02:39:25.675Z,3.14
2022-11-25T02:40:25.678Z,3.18
2022-11-25T02:41:25.710Z,3.24
2022-11-25T02:42:25.704Z,3.23
2022-11-25T02:43:25.699Z,3.31
2022-11-25T02:44:25.704Z,3.26
2022-11-25T02:45:25.748Z,3.20
2022-11-25T02:46:25.820Z,3.26
2022-11-25T02:47:25.727Z,3.29
2022-11-25T02:48:45.723Z,3.24
2022-11-25T02:49:25.757Z,3.23
2022-11-25T02:50:25.741Z,3.31
2022-11-25T02:51:25.751Z,3.26
2022-11-25T02:52:25.752Z,3.20
2022-11-25T02:53:25.762Z,3.21
2022-11-25T02:54:25.766Z,3.21
2022-11-25T02:55:25.777Z,3.31
2022-11-25T02:56:25.777Z,3.32
2022-11-25T02:57:25.788Z,3.35
2022-11-25T02:58:25.791Z,3.32
2022-11-25T02:59:25.804Z,3.35
2022-11-25T03:00:25.805Z,3.35
2022-11-25T03:01:25.931Z,3.36
2022-11-25T03:02:25.841Z,3.35
2022-11-25T03:03:25.830Z,3.35
2022-11-25T03:04:25.829Z,3.36
2022-11-25T03:05:25.858Z,3.33
2022-11-25T03:06:25.846Z,3.39
2022-11-25T03:07:25.936Z,3.35
2022-11-25T03:08:25.861Z,3.31
2022-11-25T03:09:25.865Z,3.43
2022-11-25T03:10:25.867Z,3.42
2022-11-25T03:11:25.875Z,3.47
2022-11-25T03:12:25.878Z,3.45
2022-11-25T03:13:25.887Z,3.51
2022-11-25T03:14:25.893Z,3.47
2022-11-25T03:15:25.902Z,3.35
2022-11-25T03:16:25.972Z,3.36
2022-11-25T03:17:25.919Z,3.33
2022-11-25T03:18:25.918Z,3.35
2022-11-25T03:19:25.932Z,3.35
2022-11-25T03:20:25.931Z,3.32
2022-11-25T03:21:25.959Z,3.29
2022-11-25T03:22:25.945Z,3.36
2022-11-25T03:23:25.954Z,3.26
2022-11-25T03:24:25.955Z,3.29
2022-11-25T03:25:25.966Z,3.33
2022-11-25T03:26:25.971Z,3.28
2022-11-25T03:27:29.127Z,3.28
2022-11-25T03:28:25.981Z,3.28
2022-11-25T03:29:25.990Z,3.21
2022-11-25T03:30:26.006Z,3.18
2022-11-25T03:31:26.077Z,3.23
2022-11-25T03:32:26.011Z,3.20
2022-11-25T03:33:26.015Z,3.05
2022-11-25T03:34:26.018Z,3.06
2022-11-25T03:35:26.031Z,3.05
2022-11-25T03:36:26.030Z,3.00
2022-11-25T03:37:26.109Z,3.05
2022-11-25T03:38:26.058Z,3.05
2022-11-25T03:39:26.055Z,3.11
2022-11-25T03:40:26.058Z,3.13
2022-11-25T03:41:26.070Z,3.08
2022-11-25T03:42:26.069Z,3.06
2022-11-25T03:43:26.081Z,3.10
2022-11-25T03:44:26.081Z,3.10
2022-11-25T03:45:26.111Z,3.08
2022-11-25T03:46:26.193Z,3.03
2022-11-25T03:47:26.106Z,3.10
2022-11-25T03:48:26.107Z,3.03
2022-11-25T03:49:26.121Z,3.10
2022-11-25T03:50:26.122Z,3.08
2022-11-25T03:51:26.131Z,3.06
2022-11-25T03:52:26.141Z,3.03
2022-11-25T03:53:26.164Z,3.08
2022-11-25T03:54:26.155Z,3.13
2022-11-25T03:55:26.157Z,3.03
2022-11-25T03:56:26.159Z,3.02
2022-11-25T03:57:26.168Z,3.11
2022-11-25T03:58:26.172Z,3.02
2022-11-25T03:59:26.187Z,3.06
2022-11-25T04:00:26.184Z,3.05
2022-11-25T04:01:26.349Z,3.03
2022-11-25T04:02:26.248Z,3.11
2022-11-25T04:03:26.207Z,3.06
2022-11-25T04:04:26.210Z,3.13
2022-11-25T04:05:26.326Z,3.05
2022-11-25T04:06:26.226Z,3.15
2022-11-25T04:07:26.298Z,3.15
2022-11-25T04:08:26.243Z,3.15
2022-11-25T04:09:26.266Z,3.10
2022-11-25T04:10:26.250Z,3.18
2022-11-25T04:11:26.261Z,3.20
2022-11-25T04:12:26.275Z,3.24
2022-11-25T04:13:26.283Z,3.28
2022-11-25T04:14:26.278Z,3.28
2022-11-25T04:15:26.303Z,3.26
2022-11-25T04:16:26.395Z,3.39
2022-11-25T04:17:26.309Z,3.35
2022-11-25T04:18:26.302Z,3.47
2022-11-25T04:19:26.312Z,3.47
2022-11-25T04:20:26.316Z,3.45
2022-11-25T04:21:26.326Z,3.45
2022-11-25T04:22:26.329Z,3.50
2022-11-25T04:23:26.342Z,3.54
2022-11-25T04:24:26.347Z,3.55
2022-11-25T04:25:26.372Z,3.52
2022-11-25T04:26:26.357Z,3.57
2022-11-25T04:27:26.467Z,3.55
2022-11-25T04:28:26.369Z,3.55
2022-11-25T04:29:26.377Z,3.61
2022-11-25T04:30:26.427Z,3.55
2022-11-25T04:31:26.390Z,3.60
2022-11-25T04:32:27.368Z,3.60
2022-11-25T04:33:26.404Z,3.60
2022-11-25T04:34:26.406Z,3.52
2022-11-25T04:35:26.415Z,3.45
2022-11-25T04:36:26.419Z,3.42
2022-11-25T04:37:26.429Z,3.39
2022-11-25T04:38:26.438Z,3.40
2022-11-25T04:39:26.442Z,3.33
2022-11-25T04:40:26.446Z,3.36
2022-11-25T04:41:26.474Z,3.33
2022-11-25T04:42:26.460Z,3.32
2022-11-25T04:43:26.472Z,3.31
2022-11-25T04:44:26.575Z,3.24
2022-11-25T04:45:26.490Z,3.21
2022-11-25T04:46:26.519Z,3.24
2022-11-25T04:47:26.501Z,3.36
2022-11-25T04:48:26.510Z,3.36
2022-11-25T04:49:26.506Z,3.32
2022-11-25T04:50:26.518Z,3.20
2022-11-25T04:51:26.522Z,3.32
2022-11-25T04:52:26.524Z,3.29
2022-11-25T04:53:26.539Z,3.28
2022-11-25T04:54:26.537Z,3.24
2022-11-25T04:55:26.546Z,3.20
2022-11-25T04:56:26.549Z,3.20
2022-11-25T04:57:26.582Z,3.28
2022-11-25T04:58:26.565Z,3.33
2022-11-25T04:59:26.574Z,3.36
2022-11-25T05:00:26.578Z,3.36
2022-11-25T05:01:26.650Z,3.36
2022-11-25T05:02:26.677Z,3.42
2022-11-25T05:03:26.617Z,3.47
2022-11-25T05:04:26.603Z,3.48
2022-11-25T05:05:26.615Z,3.54
2022-11-25T05:06:26.618Z,3.55
2022-11-25T05:07:26.706Z,3.52
2022-11-25T05:08:26.636Z,3.55
2022-11-25T05:09:26.663Z,3.57
2022-11-25T05:10:26.643Z,3.52
2022-11-25T05:11:26.651Z,3.51
2022-11-25T05:12:26.659Z,3.54
2022-11-25T05:13:26.684Z,3.65
2022-11-25T05:14:26.668Z,3.65
2022-11-25T05:15:26.685Z,3.70
2022-11-25T05:16:26.722Z,3.69
2022-11-25T05:17:26.691Z,3.68
2022-11-25T05:18:26.696Z,3.61
2022-11-25T05:19:26.703Z,3.57
2022-11-25T05:20:26.707Z,3.58
2022-11-25T05:21:26.719Z,3.57
2022-11-25T05:22:26.723Z,3.55
2022-11-25T05:23:26.728Z,3.50
2022-11-25T05:24:26.732Z,3.42
2022-11-25T05:25:26.746Z,3.48
2022-11-25T05:26:26.745Z,3.48
2022-11-25T05:27:26.758Z,3.43
2022-11-25T05:28:26.758Z,3.45
2022-11-25T05:29:26.786Z,3.36
2022-11-25T05:30:26.831Z,3.32
2022-11-25T05:31:26.781Z,3.32
2022-11-25T05:32:26.784Z,3.36
2022-11-25T05:33:26.794Z,3.40
2022-11-25T05:34:26.796Z,3.39
2022-11-25T05:35:26.807Z,3.39
2022-11-25T05:36:26.810Z,3.32
2022-11-25T05:37:26.816Z,3.39
2022-11-25T05:38:26.824Z,3.39
2022-11-25T05:39:26.834Z,3.36
2022-11-25T05:40:26.934Z,3.32
2022-11-25T05:41:26.845Z,3.32
2022-11-25T05:42:26.848Z,3.35
2022-11-25T05:43:26.858Z,3.33
2022-11-25T05:44:26.861Z,3.35
2022-11-25T05:45:26.893Z,3.35
2022-11-25T05:46:27.008Z,3.29
2022-11-25T05:47:26.886Z,3.24
2022-11-25T05:48:26.886Z,3.17
2022-11-25T05:49:26.901Z,3.21
2022-11-25T05:50:26.901Z,3.17
2022-11-25T05:51:26.913Z,3.24
2022-11-25T05:52:26.914Z,3.29
2022-11-25T05:53:26.928Z,3.21
2022-11-25T05:54:26.927Z,3.28
2022-11-25T05:55:26.941Z,3.18
2022-11-25T05:56:26.941Z,3.21
2022-11-25T05:57:26.949Z,3.36
2022-11-25T05:58:26.952Z,3.36
2022-11-25T05:59:26.965Z,3.45
2022-11-25T06:00:27.112Z,3.36
2022-11-25T06:01:26.995Z,3.39
2022-11-25T06:02:27.127Z,3.50
2022-11-25T06:03:27.063Z,3.33
2022-11-25T06:04:27.007Z,3.42
2022-11-25T06:05:27.011Z,3.32
2022-11-25T06:06:27.006Z,3.39
2022-11-25T06:07:27.098Z,3.42
2022-11-25T06:08:27.021Z,3.32
2022-11-25T06:09:27.032Z,3.39
2022-11-25T06:10:27.039Z,3.33
2022-11-25T06:11:27.045Z,3.39
2022-11-25T06:12:27.075Z,3.33
2022-11-25T06:13:27.060Z,3.32
2022-11-25T06:14:27.060Z,3.21
2022-11-25T06:15:27.072Z,3.24
2022-11-25T06:16:27.137Z,3.21
2022-11-25T06:17:27.107Z,3.17
2022-11-25T06:18:27.088Z,3.20
2022-11-25T06:19:27.097Z,3.18
2022-11-25T06:20:27.102Z,3.20
2022-11-25T06:21:27.111Z,3.18
2022-11-25T06:22:27.122Z,3.18
2022-11-25T06:23:27.134Z,3.08
2022-11-25T06:24:27.126Z,3.14
2022-11-25T06:25:27.135Z,3.08
2022-11-25T06:26:27.144Z,3.11
2022-11-25T06:27:31.960Z,3.02
2022-11-25T06:28:27.160Z,3.02
2022-11-25T06:29:27.162Z,3.11
2022-11-25T06:30:27.169Z,3.05
2022-11-25T06:31:27.262Z,3.05
2022-11-25T06:32:27.180Z,3.06
2022-11-25T06:33:27.222Z,3.11
2022-11-25T06:34:27.209Z,3.06
2022-11-25T06:35:27.200Z,3.06
2022-11-25T06:36:27.214Z,3.06
2022-11-25T06:37:27.219Z,3.08
2022-11-25T06:38:27.237Z,3.10
2022-11-25T06:39:27.230Z,3.08
2022-11-25T06:40:27.234Z,3.15
2022-11-25T06:41:27.238Z,3.05
2022-11-25T06:42:27.251Z,3.10
2022-11-25T06:43:27.253Z,3.17
2022-11-25T06:44:27.260Z,3.05
2022-11-25T06:45:27.266Z,3.02
2022-11-25T06:46:27.308Z,3.11
2022-11-25T06:47:27.281Z,3.08
2022-11-25T06:48:27.295Z,3.10
2022-11-25T06:49:27.313Z,3.02
2022-11-25T06:50:27.298Z,3.08
2022-11-25T06:51:27.304Z,3.02
2022-11-25T06:52:27.314Z,3.10
2022-11-25T06:53:27.316Z,3.10
2022-11-25T06:54:27.324Z,3.05
2022-11-25T06:55:27.331Z,3.10
2022-11-25T06:56:27.346Z,3.03
2022-11-25T06:57:27.348Z,3.06
2022-11-25T06:58:35.779Z,3.08
2022-11-25T06:59:27.355Z,3.08
2022-11-25T07:00:27.365Z,3.05
2022-11-25T07:01:27.497Z,3.06
2022-11-25T07:02:27.423Z,3.02
2022-11-25T07:03:27.422Z,3.14
2022-11-25T07:04:27.391Z,3.03
2022-11-25T07:05:27.424Z,3.08
2022-11-25T07:06:27.402Z,3.02
2022-11-25T07:07:27.504Z,2.99
2022-11-25T07:08:32.435Z,3.05
2022-11-25T07:09:27.444Z,3.05
2022-11-25T07:10:27.430Z,3.14
2022-11-25T07:11:27.431Z,3.06
2022-11-25T07:12:27.444Z,3.08
2022-11-25T07:13:27.445Z,3.08
2022-11-25T07:14:27.453Z,3.06
2022-11-25T07:15:27.467Z,3.18
2022-11-25T07:16:27.576Z,3.20
2022-11-25T07:17:27.471Z,3.18
2022-11-25T07:18:27.479Z,3.17
2022-11-25T07:19:27.495Z,3.23
2022-11-25T07:20:27.495Z,3.15
2022-11-25T07:21:27.514Z,3.17
2022-11-25T07:22:27.507Z,3.18
2022-11-25T07:23:27.507Z,3.18
2022-11-25T07:24:27.519Z,3.18
2022-11-25T07:25:30.675Z,3.21
2022-11-25T07:26:27.530Z,3.26
2022-11-25T07:27:27.535Z,3.21
2022-11-25T07:28:27.543Z,3.20
2022-11-25T07:29:54.248Z,3.18
2022-11-25T07:31:31.512Z,3.28
2022-11-25T07:32:27.571Z,3.39
2022-11-25T07:33:27.620Z,3.33
2022-11-25T07:34:27.583Z,3.33
2022-11-25T07:35:27.585Z,3.36
2022-11-25T07:36:27.595Z,3.36
2022-11-25T07:37:27.624Z,3.40
2022-11-25T07:38:27.611Z,3.33
2022-11-25T07:39:27.615Z,3.42
2022-11-25T07:40:27.649Z,3.32
2022-11-25T07:41:27.645Z,3.35
2022-11-25T07:42:27.722Z,3.40
2022-11-25T07:43:27.637Z,3.40
2022-11-25T07:44:27.648Z,3.33
2022-11-25T07:45:27.650Z,3.35
2022-11-25T07:46:27.826Z,3.39
2022-11-25T07:47:27.675Z,3.50
2022-11-25T07:48:27.678Z,3.52
2022-11-25T07:49:27.677Z,3.45
2022-11-25T07:50:27.774Z,3.54
2022-11-25T07:51:27.689Z,3.55
2022-11-25T07:52:27.699Z,3.57
2022-11-25T07:53:27.722Z,3.55
2022-11-25T07:54:27.727Z,3.57
2022-11-25T07:55:27.717Z,3.66
2022-11-25T07:56:27.732Z,3.66
2022-11-25T07:57:27.730Z,3.62
2022-11-25T07:58:27.751Z,3.68
2022-11-25T07:59:27.742Z,3.58
2022-11-25T08:00:27.789Z,3.70
2022-11-25T08:01:27.824Z,3.68
2022-11-25T08:02:27.825Z,3.65
2022-11-25T08:03:27.776Z,3.72
2022-11-25T08:04:27.795Z,3.70
2022-11-25T08:05:27.786Z,3.73
2022-11-25T08:06:27.793Z,3.73
2022-11-25T08:07:32.045Z,3.86
2022-11-25T08:08:27.831Z,3.83
2022-11-25T08:09:27.897Z,3.84
2022-11-25T08:10:27.819Z,3.83
2022-11-25T08:11:27.828Z,3.90
2022-11-25T08:12:27.836Z,3.84
2022-11-25T08:13:27.843Z,3.84
2022-11-25T08:14:27.851Z,3.79
2022-11-25T08:15:27.853Z,3.90
2022-11-25T08:16:27.966Z,3.93
2022-11-25T08:17:27.865Z,3.90
2022-11-25T08:18:27.878Z,3.88
2022-11-25T08:19:31.460Z,3.93
2022-11-25T08:20:27.889Z,3.97
2022-11-25T08:21:27.897Z,3.97
2022-11-25T08:22:27.903Z,3.90
2022-11-25T08:23:27.906Z,4.04
2022-11-25T08:24:27.971Z,4.12
2022-11-25T08:25:27.941Z,4.08
2022-11-25T08:26:27.960Z,4.09
2022-11-25T08:27:27.938Z,4.09
2022-11-25T08:28:27.944Z,4.12
2022-11-25T08:29:27.949Z,4.27
2022-11-25T08:30:27.982Z,4.16
2022-11-25T08:31:28.048Z,4.20
2022-11-25T08:32:27.975Z,4.29
2022-11-25T08:33:27.980Z,4.22
2022-11-25T08:34:27.988Z,4.24
2022-11-25T08:35:27.992Z,4.26
2022-11-25T08:36:28.003Z,4.33
2022-11-25T08:37:28.108Z,4.33
2022-11-25T08:38:28.016Z,4.37
2022-11-25T08:39:51.145Z,4.37
2022-11-25T08:40:28.033Z,4.29
2022-11-25T08:41:28.057Z,4.41
2022-11-25T08:42:28.059Z,4.37
2022-11-25T08:43:29.744Z,4.23
2022-11-25T08:44:28.059Z,4.26
2022-11-25T08:45:28.064Z,4.27
2022-11-25T08:46:28.177Z,4.24
2022-11-25T08:47:28.079Z,4.27
2022-11-25T08:48:28.090Z,4.27
2022-11-25T08:49:28.094Z,4.22
2022-11-25T08:50:28.106Z,4.34
2022-11-25T08:51:28.119Z,4.30
2022-11-25T08:52:28.120Z,4.34
2022-11-25T08:53:28.124Z,4.40
2022-11-25T08:54:28.132Z,4.33
2022-11-25T08:55:28.161Z,4.37
2022-11-25T08:56:28.154Z,4.36
2022-11-25T08:57:28.171Z,4.42
2022-11-25T08:58:28.164Z,4.47
2022-11-25T08:59:28.166Z,4.54
2022-11-25T09:00:28.177Z,4.52
2022-11-25T09:01:28.260Z,4.58
2022-11-25T09:02:28.234Z,4.60
2022-11-25T09:03:28.273Z,4.70
2022-11-25T09:04:28.222Z,4.54
2022-11-25T09:05:28.212Z,4.70
2022-11-25T09:06:28.223Z,4.58
2022-11-25T09:07:30.852Z,4.62
2022-11-25T09:08:28.234Z,4.69
2022-11-25T09:09:28.241Z,4.72
2022-11-25T09:10:28.252Z,4.77
2022-11-25T09:11:28.305Z,4.66
2022-11-25T09:12:28.266Z,4.70
2022-11-25T09:13:28.289Z,4.72
2022-11-25T09:14:28.321Z,4.84
2022-11-25T09:15:28.284Z,4.80
2022-11-25T09:16:28.464Z,4.78
2022-11-25T09:17:28.299Z,4.94
2022-11-25T09:18:28.310Z,4.92
2022-11-25T09:19:28.317Z,5.04
2022-11-25T09:20:28.323Z,5.06
2022-11-25T09:21:28.328Z,5.12
2022-11-25T09:22:28.345Z,5.09
2022-11-25T09:23:28.347Z,5.17
2022-11-25T09:24:28.354Z,5.24
2022-11-25T09:25:28.358Z,5.21
2022-11-25T09:26:28.411Z,5.25
2022-11-25T09:27:28.378Z,5.31
2022-11-25T09:28:28.386Z,5.31
2022-11-25T09:29:28.419Z,5.38
2022-11-25T09:30:28.401Z,5.33
2022-11-25T09:31:28.473Z,5.31
2022-11-25T09:32:28.417Z,5.22
2022-11-25T09:33:28.424Z,5.21
2022-11-25T09:34:28.432Z,5.15
2022-11-25T09:35:28.437Z,5.22
2022-11-25T09:36:28.450Z,5.22
2022-11-25T09:37:28.456Z,5.27
2022-11-25T09:38:28.467Z,5.30
2022-11-25T09:39:28.470Z,5.31
2022-11-25T09:40:28.480Z,5.36
2022-11-25T09:41:28.488Z,5.33
2022-11-25T09:42:28.501Z,5.33
2022-11-25T09:43:28.504Z,5.46
2022-11-25T09:44:28.512Z,5.45
2022-11-25T09:45:28.537Z,5.36
2022-11-25T09:46:28.628Z,5.45
2022-11-25T09:47:28.537Z,5.43
2022-11-25T09:48:28.545Z,5.49
2022-11-25T09:49:28.551Z,5.51
2022-11-25T09:50:28.567Z,5.64
2022-11-25T09:51:28.567Z,5.75
2022-11-25T09:52:28.579Z,5.78
2022-11-25T09:53:28.594Z,5.76
2022-11-25T09:54:28.600Z,5.83
2022-11-25T09:55:28.609Z,5.76
2022-11-25T09:56:28.624Z,5.78
2022-11-25T09:57:28.616Z,6.04
2022-11-25T09:58:28.639Z,6.36
2022-11-25T09:59:28.631Z,6.41
2022-11-25T10:00:28.644Z,6.69
2022-11-25T10:01:28.669Z,6.77
2022-11-25T10:02:28.846Z,6.87
2022-11-25T10:03:28.730Z,6.94
2022-11-25T10:04:28.675Z,7.30
2022-11-25T10:05:28.680Z,7.40
2022-11-25T10:06:28.783Z,7.57
2022-11-25T10:07:28.703Z,7.89
2022-11-25T10:08:28.709Z,7.89
2022-11-25T10:09:28.715Z,8.16
2022-11-25T10:10:28.739Z,8.23
2022-11-25T10:11:28.733Z,8.33
2022-11-25T10:12:28.748Z,8.47
2022-11-25T10:13:28.756Z,8.28
2022-11-25T10:14:28.766Z,7.89
2022-11-25T10:15:28.769Z,7.74
2022-11-25T10:16:28.813Z,7.72
2022-11-25T10:17:28.808Z,8.01
2022-11-25T10:18:28.802Z,8.41
2022-11-25T10:19:28.807Z,8.56
2022-11-25T10:20:28.821Z,8.80
2022-11-25T10:21:28.836Z,8.44
2022-11-25T10:22:28.842Z,8.33
2022-11-25T10:23:28.869Z,8.56
2022-11-25T10:24:28.860Z,8.70
2022-11-25T10:25:28.867Z,9.02
2022-11-25T10:26:28.880Z,9.08
2022-11-25T10:27:28.884Z,9.28
2022-11-25T10:28:28.899Z,9.35
2022-11-25T10:29:28.909Z,9.40
2022-11-25T10:30:28.919Z,9.18
2022-11-25T10:31:28.957Z,8.98
2022-11-25T10:32:28.939Z,8.80
2022-11-25T10:33:28.965Z,8.40
2022-11-25T10:34:28.959Z,8.04
2022-11-25T10:35:28.970Z,7.87
2022-11-25T10:36:28.980Z,7.98
2022-11-25T10:37:28.986Z,8.29
2022-11-25T10:38:29.002Z,8.50
2022-11-25T10:39:29.007Z,8.77
2022-11-25T10:40:29.041Z,8.52
2022-11-25T10:41:29.026Z,8.68
2022-11-25T10:42:29.041Z,8.79
2022-11-25T10:43:31.907Z,8.91
2022-11-25T10:44:29.061Z,9.26
2022-11-25T10:45:29.068Z,9.69
2022-11-25T10:46:49.752Z,9.61
2022-11-25T10:47:29.229Z,9.68
2022-11-25T10:48:29.106Z,9.78
2022-11-25T10:49:29.132Z,8.81
2022-11-25T10:50:29.130Z,8.52
2022-11-25T10:51:29.140Z,8.63
2022-11-25T10:52:29.162Z,8.70
2022-11-25T10:53:29.155Z,8.84
2022-11-25T10:54:29.179Z,9.01
2022-11-25T10:55:29.177Z,9.29
2022-11-25T10:56:29.185Z,9.57
2022-11-25T10:57:29.207Z,9.38
2022-11-25T10:58:29.212Z,9.23
2022-11-25T10:59:29.218Z,8.81
2022-11-25T11:00:29.227Z,8.61
2022-11-25T11:01:29.297Z,8.34
2022-11-25T11:02:29.330Z,8.41
2022-11-25T11:03:29.265Z,8.48
2022-11-25T11:04:29.269Z,8.37
2022-11-25T11:05:29.307Z,8.56
2022-11-25T11:06:29.291Z,8.76
2022-11-25T11:07:29.429Z,9.04
2022-11-25T11:08:29.310Z,9.26
2022-11-25T11:09:29.326Z,9.43
2022-11-25T11:10:29.331Z,9.23
2022-11-25T11:11:29.390Z,9.65
2022-11-25T11:12:29.354Z,9.84
2022-11-25T11:13:29.367Z,10.36
2022-11-25T11:14:29.375Z,10.60
2022-11-25T11:15:29.391Z,10.42
2022-11-25T11:16:29.487Z,10.38
2022-11-25T11:17:33.238Z,10.63
2022-11-25T11:18:29.432Z,10.76
2022-11-25T11:19:29.442Z,10.73
2022-11-25T11:20:29.451Z,10.86
2022-11-25T11:21:29.485Z,10.96
2022-11-25T11:22:29.463Z,11.02
2022-11-25T11:23:29.479Z,10.78
2022-11-25T11:24:29.487Z,10.81
2022-11-25T11:25:29.501Z,11.25
2022-11-25T11:26:29.510Z,11.60
2022-11-25T11:27:29.531Z,11.03
2022-11-25T11:28:29.546Z,10.97
2022-11-25T11:29:29.551Z,11.17
2022-11-25T11:30:29.573Z,11.35
2022-11-25T11:31:29.642Z,11.36
2022-11-25T11:32:29.580Z,11.10
2022-11-25T11:33:29.598Z,11.21
2022-11-25T11:34:29.604Z,11.00
2022-11-25T11:35:29.620Z,10.42
2022-11-25T11:36:29.629Z,10.68
2022-11-25T11:37:29.673Z,11.00
2022-11-25T11:38:29.664Z,11.54
2022-11-25T11:39:29.673Z,11.67
2022-11-25T11:40:29.678Z,11.86
2022-11-25T11:41:29.695Z,12.12
2022-11-25T11:42:29.704Z,11.86
2022-11-25T11:43:29.722Z,11.99
2022-11-25T11:44:29.728Z,12.13
2022-11-25T11:45:29.746Z,12.16
2022-11-25T11:46:29.820Z,11.86
2022-11-25T11:47:29.772Z,12.24
2022-11-25T11:48:29.780Z,12.53
2022-11-25T11:49:30.904Z,12.86
2022-11-25T11:50:29.808Z,12.85
2022-11-25T11:51:29.823Z,12.68
2022-11-25T11:52:29.868Z,12.02
2022-11-25T11:53:29.867Z,11.39
2022-11-25T11:54:29.857Z,11.44
2022-11-25T11:55:29.879Z,10.91
2022-11-25T11:56:36.995Z,11.02
2022-11-25T11:57:29.904Z,11.44
2022-11-25T11:58:29.915Z,11.49
2022-11-25T11:59:29.935Z,11.39
2022-11-25T12:00:29.938Z,11.32
2022-11-25T12:01:29.955Z,11.00
2022-11-25T12:02:30.013Z,10.84
2022-11-25T12:03:30.117Z,10.89
2022-11-25T12:04:29.993Z,10.99
2022-11-25T12:05:30.008Z,11.18
2022-11-25T12:06:30.023Z,11.00
2022-11-25T12:07:30.073Z,11.46
2022-11-25T12:08:30.046Z,11.55
2022-11-25T12:09:30.089Z,11.29
2022-11-25T12:10:30.070Z,11.03
2022-11-25T12:11:30.091Z,10.67
2022-11-25T12:12:30.104Z,10.34
2022-11-25T12:13:30.112Z,9.87
2022-11-25T12:14:30.123Z,9.64
2022-11-25T12:15:30.241Z,9.83
2022-11-25T12:16:30.246Z,9.97
2022-11-25T12:17:30.167Z,10.17
2022-11-25T12:18:30.176Z,10.11
2022-11-25T12:19:30.191Z,10.29
2022-11-25T12:20:30.200Z,10.20
2022-11-25T12:21:30.220Z,9.75
2022-11-25T12:22:30.225Z,9.35
2022-11-25T12:23:30.243Z,9.31
2022-11-25T12:24:30.251Z,9.17
2022-11-25T12:25:30.284Z,8.71
2022-11-25T12:26:30.277Z,8.71
2022-11-25T12:27:30.293Z,8.71
2022-11-25T12:28:30.299Z,8.56
2022-11-25T12:29:30.314Z,8.62
2022-11-25T12:30:30.325Z,8.62
2022-11-25T12:31:30.521Z,8.38
2022-11-25T12:32:30.348Z,8.28
2022-11-25T12:33:30.365Z,8.38
2022-11-25T12:34:30.372Z,8.34
2022-11-25T12:35:30.387Z,8.33
2022-11-25T12:36:30.397Z,7.89
2022-11-25T12:37:30.424Z,7.80
2022-11-25T12:38:30.420Z,7.86
2022-11-25T12:39:30.448Z,8.04
2022-11-25T12:40:30.441Z,8.07
2022-11-25T12:41:30.495Z,8.29
2022-11-25T12:42:30.467Z,8.43
2022-11-25T12:43:30.481Z,8.55
2022-11-25T12:44:30.495Z,8.61
2022-11-25T12:45:30.525Z,8.70
2022-11-25T12:46:30.510Z,8.63
2022-11-25T12:47:30.532Z,8.63
2022-11-25T12:48:30.537Z,8.61
2022-11-25T12:49:30.549Z,8.61
2022-11-25T12:50:30.557Z,8.34
2022-11-25T12:51:30.574Z,8.23
2022-11-25T12:52:30.587Z,8.11
2022-11-25T12:53:30.607Z,8.01
2022-11-25T12:54:30.606Z,8.00
2022-11-25T12:55:30.618Z,8.05
2022-11-25T12:56:30.625Z,8.07
2022-11-25T12:57:30.665Z,8.18
2022-11-25T12:58:30.712Z,8.18
2022-11-25T12:59:30.663Z,7.89
2022-11-25T13:00:41.586Z,7.69
2022-11-25T13:01:30.793Z,7.58
2022-11-25T13:02:30.752Z,7.48
2022-11-25T13:03:30.711Z,7.60
2022-11-25T13:04:30.720Z,7.72
2022-11-25T13:05:40.395Z,7.67
2022-11-25T13:06:30.736Z,7.83
2022-11-25T13:07:30.832Z,7.89
2022-11-25T13:08:30.760Z,7.80
2022-11-25T13:09:30.772Z,7.69
2022-11-25T13:10:30.780Z,7.72
2022-11-25T13:11:31.095Z,7.80
2022-11-25T13:12:31.066Z,7.80
2022-11-25T13:13:31.217Z,7.75
2022-11-25T13:14:31.228Z,7.72
2022-11-25T13:15:31.280Z,7.61
2022-11-25T13:16:31.288Z,7.57
2022-11-25T13:17:30.998Z,7.49